Time;durP1;ratioP1;P1;durP2;ratioP2;P2;SDS_P1;SDS_P2;PMS_P1;PMS_P2;Temp;Humidity;BMP_temperature;BMP_pressure;BME280_temperature;BME280_humidity;BME280_pressure;Samples;Min_cycle;Max_cycle;Signal;HPM_P1;HPM_P2
2021/08/28 00:02:48;;;;;;;16.50;6.70;;;;;;;9.81;85.43;98428.85;233196;1200;24076;-76
2021/08/28 00:07:54;;;;;;;19.00;6.10;;;;;;;9.81;85.67;98428.91;233317;1202;24064;-77
2021/08/28 00:13:12;;;;;;;;;;;;;;;9.79;85.53;98431.19;233274;1205;24601;-75
2021/08/28 00:18:18;;;;;;;16.10;5.80;;;;;;;9.74;85.64;98434.41;233360;1202;24619;-77
2021/08/28 00:23:21;;;;;;;13.40;6.40;;;;;;;9.70;85.68;98440.94;233330;1203;24161;-77
2021/08/28 00:28:28;;;;;;;15.30;6.40;;;;;;;9.66;85.81;98449.52;233148;1202;24061;-77
2021/08/28 00:33:31;;;;;;;17.30;6.40;;;;;;;9.63;86.08;98457.69;233514;1205;25296;-79
2021/08/28 00:38:33;;;;;;;10.90;4.30;;;;;;;9.62;86.06;98458.13;233193;1200;24080;-77
2021/08/28 00:43:36;;;;;;;14.40;5.30;;;;;;;9.57;86.11;98460.49;233331;1205;25000;-76
2021/08/28 00:48:38;;;;;;;9.40;3.90;;;;;;;9.53;85.99;98460.02;233395;1202;25315;-76
2021/08/28 00:53:41;;;;;;;11.50;5.90;;;;;;;9.48;86.19;98459.86;233353;1195;24096;-75
2021/08/28 00:58:45;;;;;;;12.10;5.40;;;;;;;9.45;86.41;98451.78;233471;1201;25239;-77
2021/08/28 01:03:53;;;;;;;10.10;5.30;;;;;;;9.43;86.30;98450.42;233195;1202;24046;-74
2021/08/28 01:09:18;;;;;;;18.20;5.80;;;;;;;9.38;86.44;98457.05;233443;1200;22467;-77
2021/08/28 01:14:42;;;;;;;12.00;5.60;;;;;;;9.42;87.25;98455.57;233258;1206;22554;-76
2021/08/28 01:20:06;;;;;;;13.90;6.50;;;;;;;9.53;87.75;98458.79;233400;1201;22446;-82
2021/08/28 01:25:29;;;;;;;12.80;5.40;;;;;;;9.64;87.96;98461.36;233243;1206;24041;-77
2021/08/28 01:30:51;;;;;;;12.60;6.50;;;;;;;9.74;88.28;98466.56;233345;1203;24110;-77
2021/08/28 01:36:08;;;;;;;13.20;5.30;;;;;;;9.80;87.78;98470.66;233301;1206;25124;-76
2021/08/28 01:41:27;;;;;;;18.00;6.70;;;;;;;9.68;86.36;98471.57;233410;1200;25215;-76
2021/08/28 01:46:33;;;;;;;18.20;5.70;;;;;;;9.65;86.72;98472.00;233474;1200;24168;-78
2021/08/28 01:51:39;;;;;;;10.20;5.30;;;;;;;9.56;86.22;98470.40;233368;1206;22456;-77
2021/08/28 01:56:59;;;;;;;9.80;4.40;;;;;;;9.43;86.09;98468.39;233440;1202;24041;-77
2021/08/28 02:02:03;;;;;;;6.60;3.30;;;;;;;9.35;86.01;98472.13;233251;1201;24061;-75
2021/08/28 02:07:32;;;;;;;9.50;4.10;;;;;;;9.26;86.02;98469.67;233097;1205;24053;-75
2021/08/28 02:12:41;;;;;;;10.80;4.60;;;;;;;9.16;86.14;98462.96;233295;1201;22461;-76
2021/08/28 02:18:04;;;;;;;10.50;5.30;;;;;;;9.10;86.15;98462.60;233521;1200;22498;-76
2021/08/28 02:23:48;;;;;;;14.90;4.70;;;;;;;9.09;86.64;98463.85;233187;1195;22645;-77
2021/08/28 02:29:15;;;;;;;12.00;5.70;;;;;;;9.15;87.29;98464.58;233244;1202;24071;-78
2021/08/28 02:34:20;;;;;;;16.10;5.40;;;;;;;9.28;87.78;98468.42;233657;1202;24093;-76
2021/08/28 02:39:28;;;;;;;15.00;6.00;;;;;;;9.41;88.36;98464.45;233386;1203;22690;-75
2021/08/28 02:44:33;;;;;;;19.00;6.60;;;;;;;9.55;88.61;98463.40;233247;1206;22475;-78
2021/08/28 02:49:38;;;;;;;18.70;6.90;;;;;;;9.66;88.64;98463.53;233181;1205;22517;-78
2021/08/28 02:54:42;;;;;;;20.90;7.20;;;;;;;9.75;88.57;98465.80;233516;1201;22537;-77
2021/08/28 02:59:57;;;;;;;17.40;7.00;;;;;;;9.81;88.30;98462.71;233218;1201;22453;-76
2021/08/28 03:05:15;;;;;;;23.60;7.20;;;;;;;9.84;87.92;98465.89;233292;1203;22450;-74
2021/08/28 03:10:20;;;;;;;16.20;6.80;;;;;;;9.80;87.26;98469.63;233155;1205;24006;-77
2021/08/28 03:15:26;;;;;;;22.80;8.00;;;;;;;9.79;87.29;98474.09;233365;1201;22465;-77
2021/08/28 03:20:59;;;;;;;17.70;6.70;;;;;;;9.82;87.49;98471.16;233226;1202;24081;-77
2021/08/28 03:26:01;;;;;;;19.10;8.30;;;;;;;9.84;87.59;98465.67;233202;1207;24134;-77
2021/08/28 03:31:06;;;;;;;14.60;6.30;;;;;;;9.85;87.36;98463.52;233094;1202;24068;-77
2021/08/28 03:36:10;;;;;;;20.00;6.60;;;;;;;9.81;86.88;98463.16;233436;1203;22629;-75
2021/08/28 03:41:15;;;;;;;16.10;6.30;;;;;;;9.79;86.73;98458.38;233379;1205;22455;-77
2021/08/28 03:46:26;;;;;;;15.10;6.00;;;;;;;9.79;86.90;98453.08;233184;1205;22527;-76
2021/08/28 03:51:29;;;;;;;31.20;13.00;;;;;;;9.84;87.07;98453.04;233241;1205;25211;-77
2021/08/28 03:56:33;;;;;;;50.50;18.60;;;;;;;9.87;87.18;98447.91;233405;1200;22460;-75
2021/08/28 04:01:36;;;;;;;45.50;19.60;;;;;;;9.89;86.90;98451.30;233280;1201;24020;-76
2021/08/28 04:06:42;;;;;;;41.40;14.70;;;;;;;9.94;87.10;98450.59;233346;1206;24699;-76
2021/08/28 04:11:45;;;;;;;29.40;13.20;;;;;;;9.99;86.84;98455.12;233378;1201;24100;-76
2021/08/28 04:16:51;;;;;;;23.60;9.60;;;;;;;10.02;86.64;98454.16;233359;1205;24156;-79
2021/08/28 04:21:56;;;;;;;20.20;8.20;;;;;;;10.00;85.96;98458.68;233150;1202;22480;-76
2021/08/28 04:27:22;;;;;;;7.30;3.00;;;;;;;9.96;85.48;98460.13;233328;1202;24972;-75
2021/08/28 04:32:24;;;;;;;9.80;3.10;;;;;;;9.83;84.87;98460.27;233177;1202;24240;-77
2021/08/28 04:37:40;;;;;;;8.70;3.30;;;;;;;9.73;85.35;98459.59;233206;1200;25081;-75
2021/08/28 04:42:43;;;;;;;7.70;2.90;;;;;;;9.82;85.88;98462.00;233187;1202;25534;-79
2021/08/28 04:47:46;;;;;;;7.20;3.50;;;;;;;9.96;86.09;98468.11;233582;1195;22457;-75
2021/08/28 04:52:49;;;;;;;10.50;3.60;;;;;;;10.07;86.16;98465.85;233128;1202;22465;-75
2021/08/28 04:57:51;;;;;;;12.10;5.00;;;;;;;10.21;86.11;98470.50;233501;1206;22363;-75
2021/08/28 05:02:54;;;;;;;12.50;5.20;;;;;;;10.37;86.23;98475.13;233198;1202;24665;-79
2021/08/28 05:07:58;;;;;;;17.50;7.40;;;;;;;10.61;86.36;98478.86;233160;1201;22730;-76
2021/08/28 05:13:01;;;;;;;23.10;9.60;;;;;;;10.81;86.31;98480.25;233290;1201;24153;-74
2021/08/28 05:18:13;;;;;;;22.30;8.80;;;;;;;11.00;85.90;98475.48;233473;1201;24067;-76
2021/08/28 05:23:16;;;;;;;12.90;5.80;;;;;;;11.13;85.67;98477.18;233261;1202;25221;-77
2021/08/28 05:28:50;;;;;;;18.00;6.00;;;;;;;11.28;85.36;98476.22;233266;1195;24045;-77
2021/08/28 05:33:54;;;;;;;8.00;3.30;;;;;;;11.32;85.03;98476.13;233337;1208;24094;-77
2021/08/28 05:39:02;;;;;;;15.90;5.20;;;;;;;11.38;84.90;98473.13;233287;1200;24065;-77
2021/08/28 05:44:08;;;;;;;12.50;4.70;;;;;;;11.49;85.04;98478.51;233335;1201;24100;-77
2021/08/28 05:49:25;;;;;;;8.60;3.90;;;;;;;11.70;85.61;98480.73;233188;1201;24031;-78
2021/08/28 05:54:35;;;;;;;6.40;3.10;;;;;;;11.91;85.35;98480.86;233060;1201;24111;-77
2021/08/28 05:59:38;;;;;;;11.70;4.20;;;;;;;12.01;84.70;98483.83;233218;1204;22458;-77
2021/08/28 06:04:43;;;;;;;6.10;3.10;;;;;;;12.18;85.12;98480.65;233101;1200;22511;-77
2021/08/28 06:09:48;;;;;;;9.70;4.30;;;;;;;12.44;85.21;98486.30;233262;1205;22450;-77
2021/08/28 06:15:11;;;;;;;15.80;5.50;;;;;;;12.72;84.83;98487.28;233295;1201;25181;-74
2021/08/28 06:20:43;;;;;;;8.20;3.70;;;;;;;13.03;84.93;98484.88;233208;1209;26351;-77
2021/08/28 06:25:46;;;;;;;6.70;2.90;;;;;;;13.25;83.86;98485.88;233617;1201;22607;-76
2021/08/28 06:31:01;;;;;;;6.10;2.70;;;;;;;13.38;83.23;98480.56;233813;1200;22574;-74
2021/08/28 06:36:17;;;;;;;5.60;3.10;;;;;;;13.46;82.82;98475.48;233562;1203;22522;-75
2021/08/28 06:42:01;;;;;;;9.20;2.80;;;;;;;13.57;82.65;98474.83;233425;1202;22447;-77
2021/08/28 06:47:27;;;;;;;7.30;4.20;;;;;;;13.76;82.78;98473.77;233444;1200;22480;-75
2021/08/28 06:52:48;;;;;;;4.90;2.00;;;;;;;13.99;82.76;98467.77;233466;1203;24118;-77
2021/08/28 06:58:10;;;;;;;6.10;2.30;;;;;;;14.17;82.37;98470.92;233290;1196;22773;-76
2021/08/28 07:03:51;;;;;;;7.80;3.10;;;;;;;14.31;81.76;98471.54;233346;1201;22438;-76
2021/08/28 07:09:04;;;;;;;9.60;2.60;;;;;;;14.55;81.83;98472.27;233526;1203;24089;-77
2021/08/28 07:14:08;;;;;;;5.40;2.80;;;;;;;14.66;80.62;98474.52;233484;1201;24081;-74
2021/08/28 07:19:12;;;;;;;6.50;2.10;;;;;;;14.83;80.62;98469.66;233832;1201;24086;-76
2021/08/28 07:24:15;;;;;;;4.00;2.00;;;;;;;15.00;79.05;98466.25;233595;1195;24106;-79
2021/08/28 07:29:21;;;;;;;2.30;1.50;;;;;;;15.22;79.57;98459.50;233730;1201;24044;-78
2021/08/28 07:34:24;;;;;;;4.00;1.80;;;;;;;15.62;79.71;98461.98;234427;1194;24021;-79
2021/08/28 07:39:27;;;;;;;2.30;1.10;;;;;;;16.03;79.58;98461.63;234119;1201;24366;-76
2021/08/28 07:44:30;;;;;;;2.70;1.70;;;;;;;16.25;78.76;98469.42;234068;1202;22491;-74
2021/08/28 07:49:33;;;;;;;3.90;1.70;;;;;;;16.31;77.73;98471.86;233841;1206;22492;-77
2021/08/28 07:54:35;;;;;;;4.60;1.60;;;;;;;16.28;77.28;98474.38;233592;1201;24047;-78
2021/08/28 07:59:45;;;;;;;4.00;1.30;;;;;;;16.24;76.54;98476.17;233975;1197;25264;-75
2021/08/28 08:05:07;;;;;;;3.80;1.60;;;;;;;16.26;76.51;98477.34;233975;1204;25072;-77
2021/08/28 08:10:42;;;;;;;2.30;1.20;;;;;;;16.49;76.85;98481.27;233733;1201;22782;-75
2021/08/28 08:16:15;;;;;;;2.60;1.50;;;;;;;16.78;76.66;98483.01;233843;1200;22469;-78
2021/08/28 08:22:03;;;;;;;5.70;2.30;;;;;;;17.05;75.37;98478.16;233523;1204;22488;-77
2021/08/28 08:27:20;;;;;;;2.00;1.30;;;;;;;17.18;74.74;98481.48;234100;1202;24207;-75
2021/08/28 08:32:35;;;;;;;2.00;0.90;;;;;;;17.22;74.00;98479.95;233760;1201;24114;-76
2021/08/28 08:37:39;;;;;;;2.40;1.40;;;;;;;17.40;74.17;98481.03;233551;1201;24020;-76
2021/08/28 08:42:42;;;;;;;2.60;0.90;;;;;;;17.53;72.03;98478.45;233641;1201;25158;-77
2021/08/28 08:47:46;;;;;;;3.00;1.10;;;;;;;17.43;71.47;98482.52;233951;1195;23348;-77
2021/08/28 08:52:52;;;;;;;2.30;1.00;;;;;;;17.54;71.77;98480.25;234023;1195;22452;-76
2021/08/28 08:58:17;;;;;;;1.80;0.90;;;;;;;17.62;71.12;98482.73;234189;1203;24035;-78
2021/08/28 09:03:34;;;;;;;1.90;1.00;;;;;;;17.82;70.20;98485.64;234306;1201;24064;-75
2021/08/28 09:08:38;;;;;;;0.70;0.60;;;;;;;17.96;69.16;98493.96;236142;1201;22443;-74
2021/08/28 09:13:40;;;;;;;1.00;0.80;;;;;;;18.23;68.62;98494.85;233913;1201;22447;-75
2021/08/28 09:18:50;;;;;;;0.80;0.60;;;;;;;18.61;68.66;98491.80;233871;1201;22888;-74
2021/08/28 09:24:06;;;;;;;0.40;0.30;;;;;;;18.87;67.88;98492.77;233904;1193;22451;-77
2021/08/28 09:29:21;;;;;;;1.00;0.50;;;;;;;19.01;66.91;98500.36;234090;1197;22853;-76
2021/08/28 09:34:44;;;;;;;0.70;0.40;;;;;;;19.13;65.12;98495.27;234209;1198;25171;-76
2021/08/28 09:39:59;;;;;;;1.00;0.40;;;;;;;19.30;64.91;98494.50;233893;1201;22572;-76
2021/08/28 09:45:23;;;;;;;1.10;0.70;;;;;;;19.25;62.36;98495.23;234563;1203;24007;-75
2021/08/28 09:50:36;;;;;;;1.80;0.60;;;;;;;19.04;63.26;98496.06;234124;1201;22452;-76
2021/08/28 09:55:41;;;;;;;1.80;0.60;;;;;;;19.02;63.71;98493.14;233995;1201;22585;-76
2021/08/28 10:00:45;;;;;;;1.30;0.70;;;;;;;19.02;62.92;98493.83;234037;1201;24201;-76
2021/08/28 10:05:50;;;;;;;0.90;0.60;;;;;;;18.97;62.14;98492.35;233857;1201;22469;-76
2021/08/28 10:10:52;;;;;;;0.70;0.70;;;;;;;19.10;62.94;98484.81;234027;1201;25065;-74
2021/08/28 10:16:08;;;;;;;1.70;1.10;;;;;;;19.52;63.32;98483.27;234335;1201;25276;-77
2021/08/28 10:21:12;;;;;;;1.60;0.70;;;;;;;20.02;63.59;98481.50;234216;1201;22462;-78
2021/08/28 10:26:15;;;;;;;0.70;0.70;;;;;;;20.27;61.43;98479.04;234003;1201;24055;-77
2021/08/28 10:31:18;;;;;;;1.60;0.80;;;;;;;20.56;61.76;98482.21;234212;1194;22464;-78
2021/08/28 10:36:23;;;;;;;1.70;1.00;;;;;;;20.63;59.45;98482.56;233990;1201;25092;-76
2021/08/28 10:41:26;;;;;;;0.60;0.60;;;;;;;20.59;58.88;98481.86;234206;1201;24075;-77
2021/08/28 10:46:31;;;;;;;0.60;0.60;;;;;;;20.68;59.63;98484.21;233806;1201;24083;-77
2021/08/28 10:51:55;;;;;;;0.50;0.50;;;;;;;20.69;58.03;98488.12;233791;1201;24616;-76
2021/08/28 10:57:11;;;;;;;0.90;0.70;;;;;;;20.52;57.34;98490.54;233865;1201;24492;-76
2021/08/28 11:03:00;;;;;;;1.10;0.70;;;;;;;20.39;57.83;98490.61;234351;1203;25323;-78
2021/08/28 11:08:18;;;;;;;1.80;0.80;;;;;;;20.29;58.27;98490.42;235183;1201;24075;-76
2021/08/28 11:13:20;;;;;;;1.30;0.80;;;;;;;20.15;57.69;98493.66;234105;1201;22508;-77
2021/08/28 11:18:41;;;;;;;0.80;0.40;;;;;;;19.95;57.40;98497.61;234153;1201;24050;-77
2021/08/28 11:23:45;;;;;;;;;;;;;;;19.71;57.97;98495.47;233998;1201;22433;-77
2021/08/28 11:28:47;;;;;;;1.30;1.10;;;;;;;19.56;58.65;98492.98;234111;1201;25065;-76
2021/08/28 11:34:05;;;;;;;0.90;0.50;;;;;;;19.37;58.60;98497.13;234042;1201;22575;-77
2021/08/28 11:39:43;;;;;;;0.40;0.40;;;;;;;19.16;59.30;98499.30;234223;1201;25280;-77
2021/08/28 11:44:54;;;;;;;0.40;0.40;;;;;;;18.95;60.18;98506.45;234057;1201;22489;-78
2021/08/28 11:49:59;;;;;;;2.30;0.60;;;;;;;18.69;60.58;98502.31;233960;1201;25147;-77
2021/08/28 11:55:11;;;;;;;0.60;0.50;;;;;;;18.54;61.43;98507.27;233939;1195;24202;-77
2021/08/28 12:00:28;;;;;;;0.60;0.40;;;;;;;18.46;62.00;98505.37;233913;1201;24097;-77
2021/08/28 12:05:33;;;;;;;1.40;0.60;;;;;;;18.48;62.59;98512.63;234222;1203;24138;-76
2021/08/28 12:10:43;;;;;;;0.70;0.60;;;;;;;18.55;62.75;98516.23;234276;1204;22477;-78
2021/08/28 12:15:47;;;;;;;3.40;0.70;;;;;;;18.75;63.14;98513.87;234194;1209;22836;-77
2021/08/28 12:20:50;;;;;;;0.90;0.50;;;;;;;19.05;63.15;98512.06;233742;1196;22445;-77
2021/08/28 12:25:55;;;;;;;0.50;0.40;;;;;;;19.35;62.68;98511.77;233896;1195;22673;-78
2021/08/28 12:30:57;;;;;;;0.60;0.60;;;;;;;19.62;62.27;98507.85;233949;1203;22484;-77
2021/08/28 12:36:00;;;;;;;0.50;0.40;;;;;;;19.77;61.48;98512.91;233521;1202;22765;-76
2021/08/28 12:41:09;;;;;;;0.50;0.50;;;;;;;19.69;60.93;98512.17;233744;1205;22643;-76
2021/08/28 12:46:22;;;;;;;0.60;0.50;;;;;;;19.49;61.62;98513.95;233858;1201;22458;-77
2021/08/28 12:51:25;;;;;;;0.50;0.50;;;;;;;19.27;62.28;98509.61;234046;1201;22474;-76
2021/08/28 12:56:28;;;;;;;1.40;0.70;;;;;;;19.04;62.61;98508.48;233953;1196;24055;-77
2021/08/28 13:01:41;;;;;;;1.20;0.70;;;;;;;18.84;63.19;98509.36;234077;1201;24205;-77
2021/08/28 13:07:11;;;;;;;1.30;0.90;;;;;;;18.75;63.70;98508.98;234246;1201;22465;-78
2021/08/28 13:12:14;;;;;;;;;;;;;;;18.72;63.76;98509.38;234351;1201;22494;-78
2021/08/28 13:17:34;;;;;;;2.90;1.40;;;;;;;18.67;63.78;98514.75;234087;1202;24119;-78
2021/08/28 13:22:56;;;;;;;0.90;0.80;;;;;;;18.69;64.30;98510.69;233942;1196;24032;-76
2021/08/28 13:28:20;;;;;;;1.10;0.60;;;;;;;18.80;64.47;98506.40;234225;1195;22471;-78
2021/08/28 13:33:25;;;;;;;1.20;1.00;;;;;;;18.86;64.19;98502.59;233892;1202;22920;-78
2021/08/28 13:38:28;;;;;;;2.10;0.60;;;;;;;18.87;63.81;98502.16;233801;1201;22461;-78
2021/08/28 13:43:32;;;;;;;1.10;0.80;;;;;;;18.93;63.11;98503.48;233937;1201;22482;-77
2021/08/28 13:48:40;;;;;;;0.60;0.60;;;;;;;19.09;63.07;98498.27;234014;1193;24102;-78
2021/08/28 13:53:55;;;;;;;0.20;0.20;;;;;;;19.30;62.65;98494.48;233799;1202;23213;-77
2021/08/28 13:59:13;;;;;;;0.50;0.30;;;;;;;19.48;61.57;98494.83;233733;1204;24146;-77
2021/08/28 14:04:17;;;;;;;0.90;0.70;;;;;;;19.53;60.79;98500.80;234037;1203;22474;-78
2021/08/28 14:09:30;;;;;;;1.40;0.40;;;;;;;19.50;60.83;98498.44;233904;1202;24068;-77
2021/08/28 14:14:34;;;;;;;0.60;0.50;;;;;;;19.57;60.55;98493.92;234342;1195;22501;-79
2021/08/28 14:19:49;;;;;;;1.20;0.50;;;;;;;19.56;60.02;98493.92;233961;1203;26220;-77
2021/08/28 14:25:08;;;;;;;0.30;0.30;;;;;;;19.55;59.86;98483.79;233948;1204;24043;-77
2021/08/28 14:30:12;;;;;;;0.70;0.40;;;;;;;19.50;59.78;98485.01;234056;1204;24103;-78
2021/08/28 14:35:14;;;;;;;0.40;0.40;;;;;;;19.40;59.34;98484.55;234349;1203;24160;-77
2021/08/28 14:40:17;;;;;;;0.50;0.30;;;;;;;19.42;60.20;98479.39;234050;1201;24056;-78
2021/08/28 14:45:20;;;;;;;0.30;0.30;;;;;;;19.51;60.53;98485.48;234268;1202;24102;-78
2021/08/28 14:50:22;;;;;;;0.30;0.30;;;;;;;19.66;60.49;98487.82;234118;1201;25276;-77
2021/08/28 14:55:25;;;;;;;0.30;0.30;;;;;;;19.76;59.87;98489.21;234103;1201;25331;-75
2021/08/28 15:00:28;;;;;;;2.00;0.40;;;;;;;19.90;60.00;98486.57;234105;1196;22517;-77
2021/08/28 15:05:30;;;;;;;0.40;0.40;;;;;;;20.08;59.54;98481.16;234085;1201;24150;-78
2021/08/28 15:10:46;;;;;;;0.30;0.30;;;;;;;20.22;59.05;98484.77;234061;1202;24060;-78
2021/08/28 15:16:09;;;;;;;0.80;0.70;;;;;;;20.20;58.30;98488.31;233956;1201;22570;-79
2021/08/28 15:21:13;;;;;;;0.90;0.80;;;;;;;20.24;58.49;98479.77;234093;1200;22465;-78
2021/08/28 15:26:22;;;;;;;1.50;0.40;;;;;;;20.42;58.14;98480.71;234010;1195;24179;-77
2021/08/28 15:31:25;;;;;;;0.40;0.40;;;;;;;20.42;57.98;98484.06;234173;1201;22464;-78
2021/08/28 15:36:28;;;;;;;0.40;0.40;;;;;;;20.31;57.42;98488.73;234164;1209;24129;-79
2021/08/28 15:41:31;;;;;;;0.60;0.50;;;;;;;20.30;57.92;98487.95;234084;1202;25366;-77
2021/08/28 15:46:33;;;;;;;0.50;0.40;;;;;;;20.32;57.66;98480.45;233947;1202;22461;-78
2021/08/28 15:51:36;;;;;;;0.90;0.60;;;;;;;20.27;57.54;98481.52;233898;1201;22504;-77
2021/08/28 15:56:40;;;;;;;0.80;0.40;;;;;;;20.11;56.69;98477.19;234018;1202;22468;-78
2021/08/28 16:01:43;;;;;;;0.60;0.50;;;;;;;19.96;57.68;98468.13;234153;1202;24055;-77
2021/08/28 16:06:47;;;;;;;0.90;0.80;;;;;;;19.86;57.74;98467.36;234232;1201;24070;-75
2021/08/28 16:11:49;;;;;;;2.20;0.60;;;;;;;19.70;57.97;98466.55;233864;1201;22499;-81
2021/08/28 16:17:03;;;;;;;1.50;0.70;;;;;;;19.55;58.20;98468.80;233988;1201;24603;-78
2021/08/28 16:22:06;;;;;;;1.30;0.90;;;;;;;19.43;59.04;98472.81;234043;1201;24064;-74
2021/08/28 16:27:09;;;;;;;2.50;1.50;;;;;;;19.37;59.26;98471.45;234077;1202;25137;-76
2021/08/28 16:32:11;;;;;;;1.20;1.10;;;;;;;19.28;59.57;98472.11;234179;1196;24170;-79
2021/08/28 16:37:18;;;;;;;1.80;1.40;;;;;;;19.13;59.45;98472.98;234427;1205;24070;-79
2021/08/28 16:42:41;;;;;;;1.90;1.20;;;;;;;18.87;59.95;98470.36;234161;1206;25356;-75
2021/08/28 16:47:44;;;;;;;2.40;1.80;;;;;;;18.67;60.27;98469.57;234178;1201;24092;-78
2021/08/28 16:52:47;;;;;;;3.90;2.00;;;;;;;18.59;61.10;98466.80;233906;1202;24072;-79
2021/08/28 16:57:59;;;;;;;6.80;2.40;;;;;;;18.52;62.01;98467.02;234021;1202;24077;-77
2021/08/28 17:03:06;;;;;;;2.50;1.30;;;;;;;18.42;62.01;98463.73;234059;1206;26712;-79
2021/08/28 17:08:08;;;;;;;1.80;1.60;;;;;;;18.27;61.87;98461.89;233934;1202;22458;-77
2021/08/28 17:13:11;;;;;;;2.90;2.40;;;;;;;18.10;61.96;98461.89;234213;1206;22447;-79
2021/08/28 17:18:14;;;;;;;5.50;3.30;;;;;;;17.86;62.07;98465.79;234018;1202;22461;-78
2021/08/28 17:23:17;;;;;;;2.50;2.30;;;;;;;17.63;62.63;98466.92;233842;1203;24098;-79
2021/08/28 17:28:20;;;;;;;7.70;5.50;;;;;;;17.42;63.42;98470.88;233984;1200;22560;-77
2021/08/28 17:33:23;;;;;;;5.20;3.50;;;;;;;17.27;64.46;98476.44;234138;1206;22456;-78
2021/08/28 17:38:25;;;;;;;7.20;4.50;;;;;;;17.12;65.25;98481.41;233906;1202;22583;-78
2021/08/28 17:43:28;;;;;;;6.10;4.60;;;;;;;16.97;65.90;98484.85;233959;1204;22453;-78
2021/08/28 17:48:31;;;;;;;6.60;4.80;;;;;;;16.82;66.61;98491.73;234144;1201;24102;-77
2021/08/28 17:53:34;;;;;;;7.70;5.40;;;;;;;16.69;67.29;98498.00;234405;1205;22500;-78
2021/08/28 17:58:37;;;;;;;7.50;5.50;;;;;;;16.58;68.03;98503.56;234380;1202;22570;-78
2021/08/28 18:03:39;;;;;;;6.60;5.40;;;;;;;16.47;68.63;98503.14;234108;1205;22454;-77
2021/08/28 18:08:42;;;;;;;7.20;5.20;;;;;;;16.38;69.14;98504.69;234171;1201;24017;-77
2021/08/28 18:13:45;;;;;;;8.90;6.40;;;;;;;16.33;69.71;98507.05;234395;1202;22494;-78
2021/08/28 18:18:49;;;;;;;11.40;6.80;;;;;;;16.26;70.19;98511.84;234265;1206;24010;-79
2021/08/28 18:23:52;;;;;;;8.50;6.50;;;;;;;16.17;70.34;98516.40;233963;1205;24096;-76
2021/08/28 18:28:56;;;;;;;7.80;6.60;;;;;;;16.08;70.69;98513.98;234175;1205;24170;-76
2021/08/28 18:33:58;;;;;;;9.40;6.80;;;;;;;16.00;70.92;98519.25;233948;1202;24195;-75
2021/08/28 18:39:01;;;;;;;10.40;8.10;;;;;;;15.92;71.39;98525.38;234164;1200;24055;-79
2021/08/28 18:44:04;;;;;;;10.90;7.40;;;;;;;15.83;71.90;98523.73;234391;1202;24037;-78
2021/08/28 18:49:08;;;;;;;10.20;7.80;;;;;;;15.74;72.25;98517.89;234191;1202;24166;-78
2021/08/28 18:54:11;;;;;;;12.20;8.70;;;;;;;15.68;72.57;98519.83;234062;1202;25308;-78
2021/08/28 18:59:13;;;;;;;14.70;10.90;;;;;;;15.64;72.94;98520.38;234386;1205;22464;-77
2021/08/28 19:04:29;;;;;;;11.20;8.60;;;;;;;15.59;73.18;98522.71;234092;1206;24013;-78
2021/08/28 19:09:52;;;;;;;12.30;9.20;;;;;;;15.56;73.43;98528.27;233761;1200;23960;-77
2021/08/28 19:14:54;;;;;;;13.00;9.50;;;;;;;15.56;73.63;98532.74;233672;1205;25307;-77
2021/08/28 19:19:58;;;;;;;11.80;9.40;;;;;;;15.59;73.99;98535.05;233806;1201;22476;-77
2021/08/28 19:25:01;;;;;;;13.80;8.80;;;;;;;15.58;74.04;98531.02;233891;1203;22501;-77
2021/08/28 19:30:06;;;;;;;12.80;9.40;;;;;;;15.56;74.08;98523.08;233964;1206;24099;-77
2021/08/28 19:35:09;;;;;;;16.30;10.70;;;;;;;15.55;74.44;98523.66;233905;1208;22466;-75
2021/08/28 19:40:12;;;;;;;12.70;9.50;;;;;;;15.50;74.29;98520.02;234384;1206;22935;-79
2021/08/28 19:45:15;;;;;;;12.80;8.80;;;;;;;15.32;73.95;98519.53;234391;1202;25215;-79
2021/08/28 19:50:18;;;;;;;11.10;8.40;;;;;;;15.20;74.29;98520.08;234294;1206;24779;-76
2021/08/28 19:55:20;;;;;;;13.10;9.10;;;;;;;15.14;74.53;98516.35;233819;1202;22455;-76
2021/08/28 20:00:23;;;;;;;13.40;9.40;;;;;;;15.08;75.03;98512.35;233590;1201;25278;-77
2021/08/28 20:05:27;;;;;;;13.00;9.20;;;;;;;15.02;75.10;98511.18;233626;1205;25416;-77
2021/08/28 20:10:31;;;;;;;13.80;9.10;;;;;;;14.90;74.90;98508.48;234180;1201;25217;-80
2021/08/28 20:15:37;;;;;;;13.90;10.30;;;;;;;14.79;75.01;98509.35;233858;1205;22520;-77
2021/08/28 20:20:40;;;;;;;17.80;11.00;;;;;;;14.77;75.60;98508.48;233999;1200;22464;-79
2021/08/28 20:25:43;;;;;;;18.70;11.40;;;;;;;14.77;75.81;98515.48;234145;1202;24121;-78
2021/08/28 20:30:45;;;;;;;21.60;13.40;;;;;;;14.73;75.64;98509.54;234234;1206;24060;-78
2021/08/28 20:35:48;;;;;;;17.80;12.50;;;;;;;14.68;75.62;98514.07;233939;1203;25286;-78
2021/08/28 20:40:51;;;;;;;19.10;13.60;;;;;;;14.71;75.92;98518.40;233753;1201;22494;-77
2021/08/28 20:45:55;;;;;;;21.60;13.80;;;;;;;14.74;76.06;98517.29;233747;1206;24176;-77
2021/08/28 20:50:58;;;;;;;19.40;13.30;;;;;;;14.80;76.13;98523.69;233757;1209;22478;-77
2021/08/28 20:56:00;;;;;;;24.80;14.80;;;;;;;14.83;75.84;98524.61;233585;1199;22515;-76
2021/08/28 21:01:03;;;;;;;20.80;14.30;;;;;;;14.84;76.00;98521.08;233775;1202;24541;-77
2021/08/28 21:06:06;;;;;;;20.40;12.80;;;;;;;14.86;76.18;98518.09;234151;1206;22455;-77
2021/08/28 21:11:09;;;;;;;23.40;14.80;;;;;;;14.85;76.12;98514.16;234081;1202;24056;-78
2021/08/28 21:16:13;;;;;;;20.90;15.30;;;;;;;14.88;76.37;98521.13;233718;1209;24086;-77
2021/08/28 21:21:16;;;;;;;19.90;14.40;;;;;;;14.91;76.57;98519.53;233825;1203;22453;-77
2021/08/28 21:26:19;;;;;;;20.10;14.00;;;;;;;14.90;76.26;98518.04;233746;1206;22500;-78
2021/08/28 21:31:21;;;;;;;18.90;13.80;;;;;;;14.86;76.18;98522.40;233825;1206;24137;-78
2021/08/28 21:36:26;;;;;;;16.90;12.10;;;;;;;14.86;76.42;98528.95;233833;1202;22595;-77
2021/08/28 21:41:29;;;;;;;17.30;11.60;;;;;;;14.73;76.32;98532.39;233789;1200;24067;-78
2021/08/28 21:46:31;;;;;;;15.50;10.10;;;;;;;14.64;76.71;98533.16;233951;1205;25325;-80
2021/08/28 21:51:34;;;;;;;16.30;10.30;;;;;;;14.63;76.89;98531.38;233826;1203;24068;-77
2021/08/28 21:56:37;;;;;;;15.30;10.80;;;;;;;14.63;77.07;98527.39;233964;1203;24173;-80
2021/08/28 22:01:41;;;;;;;16.00;12.70;;;;;;;14.67;77.47;98521.86;233758;1202;25071;-77
2021/08/28 22:06:44;;;;;;;17.50;12.10;;;;;;;14.69;77.43;98518.63;233918;1201;22459;-78
2021/08/28 22:11:49;;;;;;;13.80;11.10;;;;;;;14.73;77.38;98517.02;233854;1202;22478;-77
2021/08/28 22:16:53;;;;;;;17.60;13.20;;;;;;;14.75;77.24;98513.63;234139;1201;24064;-76
2021/08/28 22:21:57;;;;;;;16.20;12.60;;;;;;;14.79;77.15;98512.71;233858;1205;25274;-77
2021/08/28 22:27:20;;;;;;;17.20;11.70;;;;;;;14.84;77.03;98516.45;234037;1202;24127;-77
2021/08/28 22:32:23;;;;;;;15.90;11.50;;;;;;;14.79;76.81;98516.98;234195;1202;22623;-79
2021/08/28 22:37:25;;;;;;;15.90;12.20;;;;;;;14.72;76.79;98517.30;234097;1200;24058;-78
2021/08/28 22:42:28;;;;;;;16.40;13.20;;;;;;;14.64;76.97;98514.86;233922;1206;24070;-79
2021/08/28 22:47:32;;;;;;;16.40;11.60;;;;;;;14.60;77.26;98515.61;233892;1202;25161;-77
2021/08/28 22:52:35;;;;;;;16.50;11.90;;;;;;;14.62;77.37;98512.86;234024;1206;24124;-77
2021/08/28 22:57:38;;;;;;;17.00;12.90;;;;;;;14.66;77.62;98511.42;234045;1206;22506;-76
2021/08/28 23:02:40;;;;;;;17.80;12.10;;;;;;;14.66;77.51;98504.48;234115;1204;22748;-78
2021/08/28 23:07:45;;;;;;;16.20;10.50;;;;;;;14.53;77.42;98508.48;233935;1206;24058;-75
2021/08/28 23:12:48;;;;;;;13.80;9.50;;;;;;;14.42;77.66;98506.70;233973;1199;24087;-75
2021/08/28 23:17:52;;;;;;;12.80;9.20;;;;;;;14.38;77.95;98501.98;233906;1202;22645;-74
2021/08/28 23:22:55;;;;;;;12.40;10.30;;;;;;;14.34;78.08;98498.38;233666;1202;24218;-77
2021/08/28 23:27:57;;;;;;;13.40;9.80;;;;;;;14.31;78.14;98495.00;233660;1206;22463;-77
2021/08/28 23:33:00;;;;;;;12.20;8.40;;;;;;;14.26;78.18;98490.78;233353;1206;25333;-78
2021/08/28 23:38:03;;;;;;;11.60;8.00;;;;;;;14.22;78.11;98481.38;233504;1202;22476;-77
2021/08/28 23:43:13;;;;;;;9.80;7.90;;;;;;;14.19;78.23;98486.11;233449;1195;24054;-77
2021/08/28 23:48:27;;;;;;;11.40;8.70;;;;;;;14.21;78.76;98482.55;233332;1205;25034;-77